createdAt,value
2019-02-27T00:00:45.117Z,0.25
2019-02-27T00:02:53.749Z,0.24
2019-02-27T00:04:59.072Z,0.25
2019-02-27T00:07:05.294Z,0.31
2019-02-27T00:09:12.299Z,0.34
2019-02-27T00:11:18.554Z,0.35
2019-02-27T00:13:25.432Z,0.35
2019-02-27T00:15:37.797Z,0.36
2019-02-27T00:17:41.872Z,0.38
2019-02-27T00:19:47.993Z,0.40
2019-02-27T00:21:54.044Z,0.38
2019-02-27T00:24:00.333Z,0.38
2019-02-27T00:26:09.061Z,0.39
2019-02-27T00:28:16.018Z,0.38
2019-02-27T00:30:22.278Z,0.34
2019-02-27T00:32:28.355Z,0.32
2019-02-27T00:34:34.792Z,0.29
2019-02-27T00:36:44.878Z,0.28
2019-02-27T00:38:48.877Z,0.33
2019-02-27T00:40:55.114Z,0.33
2019-02-27T00:43:01.274Z,0.35
2019-02-27T00:45:10.894Z,0.34
2019-02-27T00:47:19.982Z,0.31
2019-02-27T00:49:24.976Z,0.28
2019-02-27T00:51:31.112Z,0.25
2019-02-27T00:53:37.284Z,0.23
2019-02-27T00:55:43.533Z,0.20
2019-02-27T00:57:51.823Z,0.18
2019-02-27T00:59:57.592Z,0.19
2019-02-27T01:02:03.856Z,0.17
2019-02-27T01:04:10.121Z,0.15
2019-02-27T01:06:16.362Z,0.10
2019-02-27T01:08:22.416Z,0.04
2019-02-27T01:10:28.671Z,0.00
2019-02-27T01:12:34.823Z,-0.05
2019-02-27T01:14:40.886Z,-0.05
2019-02-27T01:16:47.752Z,-0.10
2019-02-27T01:18:54.849Z,-0.13
2019-02-27T01:21:01.101Z,-0.18
2019-02-27T01:23:10.880Z,-0.21
2019-02-27T01:25:15.055Z,-0.24
2019-02-27T01:27:21.127Z,-0.27
2019-02-27T01:29:27.266Z,-0.30
2019-02-27T01:31:33.426Z,-0.32
2019-02-27T01:33:39.900Z,-0.33
2019-02-27T01:35:45.950Z,-0.34
2019-02-27T01:37:52.016Z,-0.37
2019-02-27T01:39:58.259Z,-0.40
2019-02-27T01:42:04.423Z,-0.44
2019-02-27T01:44:11.192Z,-0.45
2019-02-27T01:46:18.460Z,-0.47
2019-02-27T01:48:24.771Z,-0.52
2019-02-27T01:50:36.887Z,-0.56
2019-02-27T01:52:42.989Z,-0.58
2019-02-27T01:54:49.579Z,-0.62
2019-02-27T01:56:55.832Z,-0.64
2019-02-27T01:59:02.114Z,-0.66
2019-02-27T02:01:08.347Z,-0.66
2019-02-27T02:03:14.395Z,-0.67
2019-02-27T02:05:20.657Z,-0.67
2019-02-27T02:07:26.806Z,-0.67
2019-02-27T02:09:34.809Z,-0.69
2019-02-27T02:11:41.249Z,-0.70
2019-02-27T02:14:03.708Z,-0.71
2019-02-27T02:16:34.313Z,-0.74
2019-02-27T02:19:02.826Z,-0.76
2019-02-27T02:21:28.072Z,-0.76
2019-02-27T02:23:59.482Z,-0.73
2019-02-27T02:26:46.097Z,-0.73
2019-02-27T02:29:22.348Z,-0.74
2019-02-27T02:31:42.654Z,-0.76
2019-02-27T02:34:17.917Z,-0.77
2019-02-27T02:37:01.223Z,-0.78
2019-02-27T02:39:33.694Z,-0.79
2019-02-27T02:42:05.045Z,-0.76
2019-02-27T02:44:22.081Z,-0.79
2019-02-27T02:46:59.900Z,-0.79
2019-02-27T02:49:19.408Z,-0.79
2019-02-27T02:51:44.705Z,-0.81
2019-02-27T02:54:14.852Z,-0.83
2019-02-27T02:56:39.854Z,-0.88
2019-02-27T02:59:31.484Z,-0.94
2019-02-27T03:02:00.055Z,-0.96
2019-02-27T03:04:25.468Z,-0.99
2019-02-27T03:06:38.593Z,-1.00
2019-02-27T03:08:55.255Z,-0.99
2019-02-27T03:11:29.196Z,-1.00
2019-02-27T03:13:48.257Z,-1.03
2019-02-27T03:16:20.937Z,-1.06
2019-02-27T03:18:40.093Z,-1.09
2019-02-27T03:20:52.308Z,-1.09
2019-02-27T03:23:02.848Z,-1.08
2019-02-27T03:25:31.457Z,-1.09
2019-02-27T03:28:05.094Z,-1.08
2019-02-27T03:30:17.451Z,-1.09
2019-02-27T03:32:52.185Z,-1.09
2019-02-27T03:35:11.045Z,-1.09
2019-02-27T03:37:27.529Z,-1.09
2019-02-27T03:39:58.256Z,-1.09
2019-02-27T03:42:44.975Z,-1.09
2019-02-27T03:45:36.174Z,-1.11
2019-02-27T03:48:14.707Z,-1.12
2019-02-27T03:50:49.524Z,-1.11
2019-02-27T03:53:12.385Z,-1.13
2019-02-27T03:55:42.706Z,-1.15
2019-02-27T03:58:21.877Z,-1.16
2019-02-27T04:00:34.979Z,-1.21
2019-02-27T04:02:59.852Z,-1.22
2019-02-27T04:05:16.033Z,-1.21
2019-02-27T04:07:35.304Z,-1.24
2019-02-27T04:09:41.376Z,-1.28
2019-02-27T04:11:47.511Z,-1.27
2019-02-27T04:13:53.683Z,-1.25
2019-02-27T04:15:59.954Z,-1.22
2019-02-27T04:18:04.957Z,-1.22
2019-02-27T04:20:14.643Z,-1.22
2019-02-27T04:22:20.047Z,-1.23
2019-02-27T04:24:26.215Z,-1.22
2019-02-27T04:26:32.688Z,-1.22
2019-02-27T04:28:38.850Z,-1.19
2019-02-27T04:30:44.909Z,-1.20
2019-02-27T04:32:51.152Z,-1.22
2019-02-27T04:34:57.308Z,-1.17
2019-02-27T04:37:03.344Z,-1.18
2019-02-27T04:39:09.717Z,-0.97
2019-02-27T04:41:18.137Z,-0.85
2019-02-27T04:43:23.582Z,-0.92
2019-02-27T04:45:29.837Z,-0.81
2019-02-27T04:47:35.989Z,-0.84
2019-02-27T04:49:42.148Z,-0.61
2019-02-27T04:51:50.608Z,-0.63
2019-02-27T04:53:56.210Z,-0.71
2019-02-27T04:56:02.368Z,-0.79
2019-02-27T04:58:09.693Z,-0.57
2019-02-27T05:00:16.563Z,-0.67
2019-02-27T05:02:22.809Z,-0.68
2019-02-27T05:04:28.947Z,-0.61
2019-02-27T05:06:35.105Z,-0.79
2019-02-27T05:08:41.355Z,-0.93
2019-02-27T05:10:47.510Z,-1.03
2019-02-27T05:12:53.590Z,-1.13
2019-02-27T05:15:03.487Z,-1.20
2019-02-27T05:17:08.759Z,-1.23
2019-02-27T05:19:15.319Z,-1.29
2019-02-27T05:21:21.691Z,-1.29
2019-02-27T05:23:27.749Z,-1.30
2019-02-27T05:25:33.909Z,-1.26
2019-02-27T05:27:40.072Z,-1.27
2019-02-27T05:29:46.338Z,-1.24
2019-02-27T05:31:54.054Z,-1.25
2019-02-27T05:34:00.163Z,-1.22
2019-02-27T05:36:06.322Z,-1.20
2019-02-27T05:38:12.481Z,-1.19
2019-02-27T05:40:18.640Z,-1.21
2019-02-27T05:42:24.834Z,-1.21
2019-02-27T05:44:30.964Z,-1.22
2019-02-27T05:46:38.497Z,-1.24
2019-02-27T05:48:45.221Z,-1.25
2019-02-27T05:50:51.371Z,-1.25
2019-02-27T05:52:57.531Z,-1.25
2019-02-27T05:55:06.053Z,-1.24
2019-02-27T05:57:12.020Z,-1.23
2019-02-27T05:59:18.262Z,-1.21
2019-02-27T06:01:24.323Z,-1.14
2019-02-27T06:03:30.459Z,-1.12
2019-02-27T06:05:36.636Z,-1.10
2019-02-27T06:07:42.909Z,-1.09
2019-02-27T06:09:49.124Z,-1.03
2019-02-27T06:11:55.196Z,-1.04
2019-02-27T06:14:01.377Z,-1.01
2019-02-27T06:16:09.147Z,-0.95
2019-02-27T06:18:15.514Z,-0.91
2019-02-27T06:20:22.708Z,-0.87
2019-02-27T06:22:30.382Z,-0.84
2019-02-27T06:24:36.766Z,-0.80
2019-02-27T06:26:42.771Z,-0.72
2019-02-27T06:28:48.871Z,-0.63
2019-02-27T06:30:55.348Z,-0.58
2019-02-27T06:33:01.603Z,-0.52
2019-02-27T06:35:11.528Z,-0.44
2019-02-27T06:37:19.078Z,-0.35
2019-02-27T06:39:25.309Z,-0.29
2019-02-27T06:41:31.671Z,-0.21
2019-02-27T06:43:37.938Z,-0.16
2019-02-27T06:45:46.476Z,-0.10
2019-02-27T06:47:52.093Z,-0.02
2019-02-27T06:49:58.225Z,0.06
2019-02-27T06:52:04.308Z,0.12
2019-02-27T06:54:10.547Z,0.21
2019-02-27T06:56:16.707Z,0.31
2019-02-27T06:58:23.069Z,0.40
2019-02-27T07:00:29.239Z,0.50
2019-02-27T07:02:35.400Z,0.56
2019-02-27T07:04:41.537Z,0.65
2019-02-27T07:06:47.688Z,0.72
2019-02-27T07:08:53.961Z,0.80
2019-02-27T07:11:10.411Z,0.89
2019-02-27T07:13:08.121Z,0.97
2019-02-27T07:15:22.148Z,1.04
2019-02-27T07:17:29.169Z,1.13
2019-02-27T07:19:36.301Z,1.16
2019-02-27T07:21:42.390Z,1.22
2019-02-27T07:23:48.553Z,1.28
2019-02-27T07:25:54.845Z,1.33
2019-02-27T07:28:00.857Z,1.37
2019-02-27T07:30:12.629Z,1.44
2019-02-27T07:32:18.696Z,1.52
2019-02-27T07:34:24.867Z,1.60
2019-02-27T07:36:30.964Z,1.66
2019-02-27T07:38:36.968Z,1.67
2019-02-27T07:40:43.578Z,1.73
2019-02-27T07:42:49.887Z,1.81
2019-02-27T07:44:56.048Z,1.85
2019-02-27T07:47:02.104Z,1.92
2019-02-27T07:49:08.215Z,1.98
2019-02-27T07:51:14.429Z,2.09
2019-02-27T07:53:20.556Z,2.17
2019-02-27T07:55:28.455Z,2.26
2019-02-27T07:57:34.730Z,2.36
2019-02-27T07:59:40.988Z,2.46
2019-02-27T08:01:47.167Z,2.55
2019-02-27T08:03:53.420Z,2.68
2019-02-27T08:05:59.879Z,2.79
2019-02-27T08:08:07.484Z,2.89
2019-02-27T08:10:25.461Z,3.01
2019-02-27T08:12:31.776Z,3.11
2019-02-27T08:14:38.031Z,3.24
2019-02-27T08:16:44.276Z,3.33
2019-02-27T08:18:50.555Z,3.42
2019-02-27T08:20:56.906Z,3.50
2019-02-27T08:23:03.086Z,3.59
2019-02-27T08:25:20.808Z,3.72
2019-02-27T08:27:27.046Z,3.86
2019-02-27T08:29:34.265Z,4.02
2019-02-27T08:31:40.508Z,4.16
2019-02-27T08:33:46.771Z,4.30
2019-02-27T08:35:54.570Z,4.46
2019-02-27T08:38:02.779Z,4.60
2019-02-27T08:40:12.616Z,4.83
2019-02-27T08:42:18.867Z,4.94
2019-02-27T08:44:25.037Z,5.08
2019-02-27T08:46:34.050Z,5.22
2019-02-27T08:48:39.297Z,5.44
2019-02-27T08:50:45.563Z,5.58
2019-02-27T08:52:52.035Z,5.71
2019-02-27T08:54:58.401Z,5.88
2019-02-27T08:57:04.635Z,6.02
2019-02-27T08:59:10.807Z,6.18
2019-02-27T09:01:19.083Z,6.26
2019-02-27T09:03:24.857Z,6.43
2019-02-27T09:05:31.525Z,6.57
2019-02-27T09:07:37.722Z,6.70
2019-02-27T09:09:43.949Z,6.81
2019-02-27T09:11:50.196Z,6.96
2019-02-27T09:13:56.368Z,7.04
2019-02-27T09:16:02.632Z,7.19
2019-02-27T09:18:08.796Z,7.29
2019-02-27T09:20:19.691Z,7.35
2019-02-27T09:22:25.693Z,7.41
2019-02-27T09:24:31.856Z,7.54
2019-02-27T09:26:38.118Z,7.64
2019-02-27T09:28:45.160Z,7.69
2019-02-27T09:30:51.467Z,7.77
2019-02-27T09:32:57.736Z,7.85
2019-02-27T09:35:04.724Z,7.93
2019-02-27T09:37:13.903Z,7.95
2019-02-27T09:39:19.161Z,7.98
2019-02-27T09:41:26.861Z,8.03
2019-02-27T09:43:34.718Z,8.04
2019-02-27T09:45:40.927Z,8.17
2019-02-27T09:47:47.277Z,8.31
2019-02-27T09:49:53.540Z,8.38
2019-02-27T09:51:59.699Z,8.44
2019-02-27T09:54:08.005Z,8.43
2019-02-27T09:56:14.575Z,8.44
2019-02-27T09:58:22.778Z,8.52
2019-02-27T10:00:52.901Z,8.56
2019-02-27T10:02:59.055Z,8.57
2019-02-27T10:05:06.035Z,8.60
2019-02-27T10:07:14.589Z,8.69
2019-02-27T10:09:21.113Z,8.76
2019-02-27T10:11:27.595Z,8.82
2019-02-27T10:13:35.476Z,8.89
2019-02-27T10:15:41.992Z,8.95
2019-02-27T10:17:48.304Z,9.03
2019-02-27T10:19:54.571Z,9.10
2019-02-27T10:22:00.923Z,9.18
2019-02-27T10:24:07.117Z,9.25
2019-02-27T10:26:13.561Z,9.35
2019-02-27T10:28:19.683Z,9.43
2019-02-27T10:30:25.972Z,9.56
2019-02-27T10:32:36.451Z,9.60
2019-02-27T10:34:40.032Z,9.62
2019-02-27T10:36:47.642Z,9.68
2019-02-27T10:38:54.993Z,9.64
2019-02-27T10:41:01.159Z,9.70
2019-02-27T10:43:07.310Z,9.78
2019-02-27T10:45:15.432Z,9.87
2019-02-27T10:47:21.795Z,9.96
2019-02-27T10:49:27.835Z,10.06
2019-02-27T10:51:34.111Z,10.17
2019-02-27T10:53:40.426Z,10.24
2019-02-27T10:55:49.262Z,10.32
2019-02-27T10:57:54.618Z,10.42
2019-02-27T11:00:00.757Z,10.53
2019-02-27T11:02:09.737Z,10.55
2019-02-27T11:04:16.876Z,10.58
2019-02-27T11:06:23.022Z,10.70
2019-02-27T11:08:29.708Z,10.65
2019-02-27T11:10:35.978Z,10.69
2019-02-27T11:12:42.126Z,10.80
2019-02-27T11:14:48.400Z,11.04
2019-02-27T11:16:54.649Z,11.17
2019-02-27T11:19:02.343Z,11.34
2019-02-27T11:21:08.601Z,11.48
2019-02-27T11:23:14.766Z,11.90
2019-02-27T11:25:33.709Z,12.25
2019-02-27T11:27:39.834Z,12.51
2019-02-27T11:29:46.031Z,12.59
2019-02-27T11:31:53.294Z,12.71
2019-02-27T11:34:01.107Z,12.72
2019-02-27T11:36:08.608Z,12.63
2019-02-27T11:38:16.000Z,12.52
2019-02-27T11:40:27.200Z,12.41
2019-02-27T11:42:33.538Z,12.35
2019-02-27T11:44:39.877Z,12.40
2019-02-27T11:46:46.049Z,12.43
2019-02-27T11:48:52.308Z,12.47
2019-02-27T11:50:58.560Z,12.41
2019-02-27T11:53:04.828Z,12.33
2019-02-27T11:55:15.578Z,12.29
2019-02-27T11:57:21.758Z,12.27
2019-02-27T11:59:28.007Z,12.36
2019-02-27T12:01:34.189Z,12.38
2019-02-27T12:03:40.535Z,12.37
2019-02-27T12:05:46.788Z,12.30
2019-02-27T12:07:53.062Z,12.31
2019-02-27T12:09:59.316Z,12.36
2019-02-27T12:12:06.185Z,12.38
2019-02-27T12:14:12.358Z,12.35
2019-02-27T12:16:18.643Z,12.42
2019-02-27T12:18:24.861Z,12.50
2019-02-27T12:20:31.122Z,12.47
2019-02-27T12:22:38.110Z,12.48
2019-02-27T12:24:44.386Z,12.28
2019-02-27T12:26:50.610Z,12.23
2019-02-27T12:28:56.723Z,12.13
2019-02-27T12:31:02.948Z,12.00
2019-02-27T12:33:09.512Z,11.93
2019-02-27T12:35:22.442Z,11.82
2019-02-27T12:37:34.080Z,11.80
2019-02-27T12:39:37.599Z,11.72
2019-02-27T12:41:43.720Z,11.69
2019-02-27T12:43:52.646Z,11.66
2019-02-27T12:46:00.995Z,11.62
2019-02-27T12:48:05.791Z,11.62
2019-02-27T12:50:16.380Z,11.57
2019-02-27T12:52:22.781Z,11.53
2019-02-27T12:54:29.007Z,11.34
2019-02-27T12:56:35.228Z,11.30
2019-02-27T12:58:41.650Z,11.27
2019-02-27T13:00:47.898Z,11.27
2019-02-27T13:02:55.178Z,11.25
2019-02-27T13:05:01.326Z,11.28
2019-02-27T13:07:10.252Z,11.33
2019-02-27T13:09:15.383Z,11.41
2019-02-27T13:11:21.526Z,11.45
2019-02-27T13:13:27.820Z,11.47
2019-02-27T13:15:34.067Z,11.49
2019-02-27T13:17:40.326Z,11.54
2019-02-27T13:19:46.586Z,11.58
2019-02-27T13:21:55.017Z,11.65
2019-02-27T13:24:00.858Z,11.62
2019-02-27T13:26:08.251Z,11.56
2019-02-27T13:28:15.546Z,11.56
2019-02-27T13:30:24.379Z,11.61
2019-02-27T13:32:30.608Z,11.65
2019-02-27T13:34:36.710Z,11.59
2019-02-27T13:36:42.935Z,11.54
2019-02-27T13:38:52.203Z,11.53
2019-02-27T13:40:58.627Z,11.55
2019-02-27T13:43:04.975Z,11.57
2019-02-27T13:45:15.963Z,11.56
2019-02-27T13:47:22.213Z,11.49
2019-02-27T13:49:28.574Z,11.47
2019-02-27T13:51:37.287Z,11.44
2019-02-27T13:53:42.633Z,11.42
2019-02-27T13:55:49.005Z,11.42
2019-02-27T13:57:58.794Z,11.43
2019-02-27T14:00:03.459Z,11.43
2019-02-27T14:02:11.513Z,11.40
2019-02-27T14:04:21.679Z,11.43
2019-02-27T14:06:25.720Z,11.44
2019-02-27T14:08:32.875Z,11.47
2019-02-27T14:10:39.250Z,11.45
2019-02-27T14:12:45.437Z,11.45
2019-02-27T14:14:53.302Z,11.51
2019-02-27T14:16:59.579Z,11.50
2019-02-27T14:19:05.839Z,11.49
2019-02-27T14:21:12.099Z,11.49
2019-02-27T14:23:18.359Z,11.46
2019-02-27T14:25:34.769Z,11.48
2019-02-27T14:27:41.119Z,11.48
2019-02-27T14:29:47.376Z,11.52
2019-02-27T14:31:53.539Z,11.51
2019-02-27T14:33:59.798Z,11.46
2019-02-27T14:36:08.507Z,11.45
2019-02-27T14:38:13.967Z,11.45
2019-02-27T14:40:22.469Z,11.41
2019-02-27T14:42:28.747Z,11.38
2019-02-27T14:44:35.098Z,11.35
2019-02-27T14:46:41.945Z,11.28
2019-02-27T14:48:49.350Z,11.29
2019-02-27T14:50:55.526Z,11.28
2019-02-27T14:53:01.768Z,11.26
2019-02-27T14:55:14.369Z,11.20
2019-02-27T14:57:20.550Z,11.19
2019-02-27T14:59:30.622Z,11.20
2019-02-27T15:01:34.699Z,11.28
2019-02-27T15:03:40.972Z,11.30
2019-02-27T15:05:47.224Z,11.32
2019-02-27T15:07:54.806Z,11.29
2019-02-27T15:10:01.380Z,11.25
2019-02-27T15:12:09.076Z,11.22
2019-02-27T15:14:15.356Z,11.17
2019-02-27T15:16:24.565Z,11.15
2019-02-27T15:18:30.856Z,11.09
2019-02-27T15:20:40.188Z,11.03
2019-02-27T15:22:46.757Z,10.96
2019-02-27T15:24:53.085Z,10.90
2019-02-27T15:27:00.455Z,10.85
2019-02-27T15:29:06.726Z,10.80
2019-02-27T15:31:12.907Z,10.78
2019-02-27T15:33:20.487Z,10.76
2019-02-27T15:35:28.387Z,10.67
2019-02-27T15:37:37.454Z,10.59
2019-02-27T15:39:43.368Z,10.50
2019-02-27T15:41:49.648Z,10.46
2019-02-27T15:44:00.198Z,10.41
2019-02-27T15:46:03.903Z,10.39
2019-02-27T15:48:10.458Z,10.33
2019-02-27T15:50:23.019Z,10.32
2019-02-27T15:52:28.815Z,10.30
2019-02-27T15:54:34.951Z,10.24
2019-02-27T15:56:43.159Z,10.26
2019-02-27T15:58:49.228Z,10.19
2019-02-27T16:00:55.493Z,10.10
2019-02-27T16:03:01.745Z,9.98
2019-02-27T16:05:12.170Z,9.86
2019-02-27T16:07:18.470Z,9.74
2019-02-27T16:09:24.725Z,9.60
2019-02-27T16:11:31.084Z,9.52
2019-02-27T16:13:37.342Z,9.41
2019-02-27T16:15:44.833Z,9.28
2019-02-27T16:17:51.505Z,9.17
2019-02-27T16:19:57.659Z,9.13
2019-02-27T16:22:03.925Z,9.05
2019-02-27T16:24:11.405Z,8.94
2019-02-27T16:26:17.575Z,8.92
2019-02-27T16:28:23.966Z,8.85
2019-02-27T16:30:37.244Z,8.77
2019-02-27T16:32:48.020Z,8.66
2019-02-27T16:34:51.416Z,8.58
2019-02-27T16:36:57.685Z,8.49
2019-02-27T16:39:07.398Z,8.43
2019-02-27T16:41:16.400Z,8.37
2019-02-27T16:43:22.712Z,8.27
2019-02-27T16:45:39.422Z,8.21
2019-02-27T16:47:45.676Z,8.15
2019-02-27T16:49:52.024Z,8.02
2019-02-27T16:51:58.196Z,7.93
2019-02-27T16:54:04.455Z,7.88
2019-02-27T16:56:11.814Z,7.84
2019-02-27T16:58:18.708Z,7.85
2019-02-27T17:00:31.624Z,7.93
2019-02-27T17:02:39.521Z,7.97
2019-02-27T17:04:45.804Z,8.03
2019-02-27T17:06:52.418Z,8.15
2019-02-27T17:09:00.036Z,8.15
2019-02-27T17:11:06.416Z,8.09
2019-02-27T17:13:15.482Z,8.05
2019-02-27T17:15:22.123Z,7.97
2019-02-27T17:17:28.579Z,8.03
2019-02-27T17:19:36.548Z,8.01
2019-02-27T17:21:43.468Z,8.02
2019-02-27T17:23:49.824Z,8.01
2019-02-27T17:25:56.185Z,7.99
2019-02-27T17:28:02.558Z,7.99
2019-02-27T17:30:24.486Z,8.00
2019-02-27T17:32:31.032Z,8.09
2019-02-27T17:34:38.941Z,8.12
2019-02-27T17:36:46.837Z,8.14
2019-02-27T17:38:53.113Z,8.16
2019-02-27T17:40:59.538Z,8.10
2019-02-27T17:43:08.015Z,8.11
2019-02-27T17:45:24.501Z,8.09
2019-02-27T17:47:31.371Z,8.10
2019-02-27T17:49:38.043Z,8.08
2019-02-27T17:51:44.575Z,8.06
2019-02-27T17:53:50.808Z,8.10
2019-02-27T17:55:58.844Z,8.10
2019-02-27T17:58:07.146Z,8.06
2019-02-27T18:00:39.739Z,8.04
2019-02-27T18:02:48.497Z,8.04
2019-02-27T18:04:55.226Z,8.03
2019-02-27T18:07:01.911Z,8.05
2019-02-27T18:09:10.132Z,8.13
2019-02-27T18:11:17.376Z,8.15
2019-02-27T18:13:27.071Z,8.16
2019-02-27T18:15:33.793Z,8.10
2019-02-27T18:17:40.593Z,8.07
2019-02-27T18:19:50.801Z,8.09
2019-02-27T18:21:58.696Z,8.08
2019-02-27T18:24:05.851Z,8.09
2019-02-27T18:26:15.803Z,8.06
2019-02-27T18:28:22.494Z,8.02
2019-02-27T18:30:29.659Z,7.98
2019-02-27T18:32:39.775Z,7.92
2019-02-27T18:34:46.094Z,7.84
2019-02-27T18:36:52.520Z,7.73
2019-02-27T18:39:02.512Z,7.60
2019-02-27T18:41:14.439Z,7.55
2019-02-27T18:43:20.853Z,7.51
2019-02-27T18:45:29.454Z,7.49
2019-02-27T18:47:36.265Z,7.41
2019-02-27T18:49:42.741Z,7.32
2019-02-27T18:51:49.537Z,7.27
2019-02-27T18:53:57.841Z,7.20
2019-02-27T18:56:04.583Z,7.11
2019-02-27T18:58:12.742Z,7.08
2019-02-27T19:00:25.392Z,7.05
2019-02-27T19:02:32.349Z,6.95
2019-02-27T19:04:41.736Z,6.86
2019-02-27T19:06:48.854Z,6.74
2019-02-27T19:08:55.979Z,6.64
2019-02-27T19:11:03.949Z,6.59
2019-02-27T19:13:10.526Z,6.52
2019-02-27T19:15:26.183Z,6.45
2019-02-27T19:17:34.529Z,6.38
2019-02-27T19:19:41.625Z,6.31
2019-02-27T19:21:49.069Z,6.25
2019-02-27T19:23:55.578Z,6.18
2019-02-27T19:26:02.593Z,6.12
2019-02-27T19:28:09.442Z,6.08
2019-02-27T19:30:19.503Z,6.03
2019-02-27T19:32:26.194Z,6.01
2019-02-27T19:34:33.323Z,5.98
2019-02-27T19:36:39.994Z,5.96
2019-02-27T19:38:47.671Z,5.94
2019-02-27T19:40:55.639Z,5.92
2019-02-27T19:43:09.955Z,5.89
2019-02-27T19:45:17.063Z,5.87
2019-02-27T19:47:23.642Z,5.90
2019-02-27T19:49:30.185Z,5.91
2019-02-27T19:51:36.640Z,5.89
2019-02-27T19:53:44.997Z,5.88
2019-02-27T19:56:00.675Z,5.93
2019-02-27T19:58:05.031Z,5.97
2019-02-27T20:00:35.593Z,5.98
2019-02-27T20:02:45.732Z,6.11
2019-02-27T20:04:56.259Z,6.19
2019-02-27T20:07:03.616Z,6.26
2019-02-27T20:09:11.389Z,6.37
2019-02-27T20:11:18.150Z,6.42
2019-02-27T20:13:28.120Z,6.49
2019-02-27T20:15:33.714Z,6.55
2019-02-27T20:17:41.355Z,6.56
2019-02-27T20:19:48.360Z,6.56
2019-02-27T20:21:55.170Z,6.51
2019-02-27T20:24:02.428Z,6.48
2019-02-27T20:26:14.124Z,6.44
2019-02-27T20:28:18.860Z,6.44
2019-02-27T20:30:30.240Z,6.45
2019-02-27T20:32:38.192Z,6.48
2019-02-27T20:34:45.762Z,6.51
2019-02-27T20:36:54.471Z,6.52
2019-02-27T20:39:05.451Z,6.51
2019-02-27T20:41:14.358Z,6.44
2019-02-27T20:43:22.539Z,6.46
2019-02-27T20:45:30.120Z,6.38
2019-02-27T20:47:36.620Z,6.38
2019-02-27T20:49:47.891Z,6.34
2019-02-27T20:51:55.866Z,6.32
2019-02-27T20:54:02.732Z,6.28
2019-02-27T20:56:09.572Z,6.23
2019-02-27T20:58:17.749Z,6.21
2019-02-27T21:00:25.261Z,6.21
2019-02-27T21:02:31.770Z,6.22
2019-02-27T21:04:39.192Z,6.28
2019-02-27T21:06:48.588Z,6.29
2019-02-27T21:08:58.115Z,6.28
2019-02-27T21:11:04.901Z,6.25
2019-02-27T21:13:15.695Z,6.33
2019-02-27T21:15:24.831Z,6.37
2019-02-27T21:17:33.410Z,6.41
2019-02-27T21:19:41.925Z,6.49
2019-02-27T21:21:53.641Z,6.56
2019-02-27T21:23:59.861Z,6.63
2019-02-27T21:26:08.101Z,6.70
2019-02-27T21:28:20.986Z,6.76
2019-02-27T21:30:26.866Z,6.85
2019-02-27T21:32:36.221Z,6.85
2019-02-27T21:34:44.679Z,6.81
2019-02-27T21:36:51.188Z,6.83
2019-02-27T21:38:58.858Z,6.80
2019-02-27T21:41:11.344Z,6.88
2019-02-27T21:43:15.587Z,6.85
2019-02-27T21:45:25.909Z,6.86
2019-02-27T21:47:34.700Z,6.86
2019-02-27T21:49:41.307Z,6.92
2019-02-27T21:51:48.098Z,6.91
2019-02-27T21:53:55.370Z,6.92
2019-02-27T21:56:03.479Z,6.93
2019-02-27T21:58:19.960Z,6.97
2019-02-27T22:00:24.394Z,6.93
2019-02-27T22:02:32.445Z,6.93
2019-02-27T22:04:41.211Z,6.91
2019-02-27T22:06:46.533Z,6.88
2019-02-27T22:08:52.809Z,6.79
2019-02-27T22:10:59.259Z,6.75
2019-02-27T22:13:09.562Z,6.67
2019-02-27T22:15:29.387Z,6.64
2019-02-27T22:17:36.639Z,6.62
2019-02-27T22:19:43.866Z,6.54
2019-02-27T22:21:50.027Z,6.46
2019-02-27T22:23:56.273Z,6.43
2019-02-27T22:26:03.370Z,6.38
2019-02-27T22:28:10.538Z,6.34
2019-02-27T22:30:19.771Z,6.30
2019-02-27T22:32:25.818Z,6.23
2019-02-27T22:34:32.073Z,6.24
2019-02-27T22:36:38.336Z,6.22
2019-02-27T22:38:44.703Z,6.25
2019-02-27T22:40:50.748Z,6.23
2019-02-27T22:42:56.912Z,6.21
2019-02-27T22:45:04.125Z,6.18
2019-02-27T22:47:11.409Z,6.11
2019-02-27T22:49:17.676Z,6.04
2019-02-27T22:51:24.312Z,6.02
2019-02-27T22:53:30.561Z,5.92
2019-02-27T22:55:36.720Z,5.87
2019-02-27T22:57:42.889Z,5.81
2019-02-27T22:59:49.046Z,5.74
2019-02-27T23:01:56.093Z,5.79
2019-02-27T23:04:02.794Z,5.75
2019-02-27T23:06:12.330Z,5.78
2019-02-27T23:08:19.055Z,5.73
2019-02-27T23:10:28.155Z,5.66
2019-02-27T23:12:34.417Z,5.63
2019-02-27T23:14:40.656Z,5.56
2019-02-27T23:16:47.113Z,5.46
2019-02-27T23:18:53.412Z,5.36
2019-02-27T23:20:59.931Z,5.27
2019-02-27T23:23:07.330Z,5.19
2019-02-27T23:25:15.614Z,5.11
2019-02-27T23:27:21.380Z,5.07
2019-02-27T23:29:27.437Z,5.04
2019-02-27T23:31:33.678Z,5.00
2019-02-27T23:33:39.847Z,4.98
2019-02-27T23:35:47.413Z,4.94
2019-02-27T23:37:54.418Z,4.93
2019-02-27T23:40:00.577Z,4.91
2019-02-27T23:42:06.939Z,4.89
2019-02-27T23:44:13.094Z,4.87
2019-02-27T23:46:19.292Z,4.85
2019-02-27T23:48:25.522Z,4.86
2019-02-27T23:50:31.570Z,4.92
2019-02-27T23:52:37.630Z,4.96
2019-02-27T23:54:43.787Z,5.01
2019-02-27T23:56:51.777Z,5.08
2019-02-27T23:59:02.097Z,5.14
